sensor_id;sensor_type;location;lat;lon;timestamp;temperature;humidity
5258;DHT22;2651;51.594;9.928;2022-12-18T00:00:29;-9.10;99.90
5258;DHT22;2651;51.594;9.928;2022-12-18T00:01:33;-9.10;1.00
5258;DHT22;2651;51.594;9.928;2022-12-18T00:02:36;-9.00;1.00
5258;DHT22;2651;51.594;9.928;2022-12-18T00:03:38;-9.00;99.90
5258;DHT22;2651;51.594;9.928;2022-12-18T00:04:41;-9.00;1.00
5258;DHT22;2651;51.594;9.928;2022-12-18T00:05:50;-9.00;1.00
5258;DHT22;2651;51.594;9.928;2022-12-18T00:06:52;-9.00;1.00
5258;DHT22;2651;51.594;9.928;2022-12-18T00:07:54;-8.90;1.00
5258;DHT22;2651;51.594;9.928;2022-12-18T00:08:57;-8.90;1.00
5258;DHT22;2651;51.594;9.928;2022-12-18T00:09:59;-8.90;1.00
5258;DHT22;2651;51.594;9.928;2022-12-18T00:11:06;-8.90;1.00
5258;DHT22;2651;51.594;9.928;2022-12-18T00:12:08;-8.90;1.00
5258;DHT22;2651;51.594;9.928;2022-12-18T00:13:16;-9.00;1.00
5258;DHT22;2651;51.594;9.928;2022-12-18T00:14:18;-9.00;1.00
5258;DHT22;2651;51.594;9.928;2022-12-18T00:15:20;-9.00;99.90
5258;DHT22;2651;51.594;9.928;2022-12-18T00:16:24;-9.00;99.90
5258;DHT22;2651;51.594;9.928;2022-12-18T00:17:26;-9.10;64.80
5258;DHT22;2651;51.594;9.928;2022-12-18T00:18:28;-9.10;11.20
5258;DHT22;2651;51.594;9.928;2022-12-18T00:19:30;-9.10;1.00
5258;DHT22;2651;51.594;9.928;2022-12-18T00:20:36;-9.10;1.00
5258;DHT22;2651;51.594;9.928;2022-12-18T00:21:38;-9.20;1.00
5258;DHT22;2651;51.594;9.928;2022-12-18T00:22:40;-9.20;1.00
5258;DHT22;2651;51.594;9.928;2022-12-18T00:23:43;-9.30;1.00
5258;DHT22;2651;51.594;9.928;2022-12-18T00:24:45;-9.30;1.00
5258;DHT22;2651;51.594;9.928;2022-12-18T00:25:47;-9.30;1.00
5258;DHT22;2651;51.594;9.928;2022-12-18T00:26:49;-9.30;2.30
5258;DHT22;2651;51.594;9.928;2022-12-18T00:27:51;-9.30;1.00
5258;DHT22;2651;51.594;9.928;2022-12-18T00:28:53;-9.30;1.00
5258;DHT22;2651;51.594;9.928;2022-12-18T00:29:56;-9.30;1.00
5258;DHT22;2651;51.594;9.928;2022-12-18T00:32:03;-9.40;23.50
5258;DHT22;2651;51.594;9.928;2022-12-18T00:33:05;-9.40;99.60
5258;DHT22;2651;51.594;9.928;2022-12-18T00:34:08;-9.40;99.90
5258;DHT22;2651;51.594;9.928;2022-12-18T00:35:10;-9.40;99.90
5258;DHT22;2651;51.594;9.928;2022-12-18T00:36:15;-9.40;99.90
5258;DHT22;2651;51.594;9.928;2022-12-18T00:37:17;-9.40;99.90
5258;DHT22;2651;51.594;9.928;2022-12-18T00:38:21;-9.40;99.90
5258;DHT22;2651;51.594;9.928;2022-12-18T00:39:22;-9.40;1.00
5258;DHT22;2651;51.594;9.928;2022-12-18T00:40:24;-9.50;1.00
5258;DHT22;2651;51.594;9.928;2022-12-18T00:41:27;-9.60;1.00
5258;DHT22;2651;51.594;9.928;2022-12-18T00:42:47;-9.60;73.30
5258;DHT22;2651;51.594;9.928;2022-12-18T00:43:58;-9.70;1.00
5258;DHT22;2651;51.594;9.928;2022-12-18T00:44:59;-9.70;1.00
5258;DHT22;2651;51.594;9.928;2022-12-18T00:46:01;-9.70;1.00
5258;DHT22;2651;51.594;9.928;2022-12-18T00:47:03;-9.70;1.00
5258;DHT22;2651;51.594;9.928;2022-12-18T00:48:05;-9.80;1.00
5258;DHT22;2651;51.594;9.928;2022-12-18T00:49:07;-9.80;84.30
5258;DHT22;2651;51.594;9.928;2022-12-18T00:50:09;-9.80;99.90
5258;DHT22;2651;51.594;9.928;2022-12-18T00:51:11;-9.80;1.00
5258;DHT22;2651;51.594;9.928;2022-12-18T00:52:13;-9.70;54.30
5258;DHT22;2651;51.594;9.928;2022-12-18T00:53:15;-9.70;99.90
5258;DHT22;2651;51.594;9.928;2022-12-18T00:54:17;-9.70;99.90
5258;DHT22;2651;51.594;9.928;2022-12-18T00:55:19;-9.70;1.00
5258;DHT22;2651;51.594;9.928;2022-12-18T00:56:20;-9.70;33.20
5258;DHT22;2651;51.594;9.928;2022-12-18T00:57:22;-9.70;99.90
5258;DHT22;2651;51.594;9.928;2022-12-18T00:58:24;-9.60;1.00
5258;DHT22;2651;51.594;9.928;2022-12-18T00:59:25;-9.60;49.80
5258;DHT22;2651;51.594;9.928;2022-12-18T01:00:27;-9.60;99.90
5258;DHT22;2651;51.594;9.928;2022-12-18T01:01:28;-9.60;99.90
5258;DHT22;2651;51.594;9.928;2022-12-18T01:02:30;-9.50;1.00
5258;DHT22;2651;51.594;9.928;2022-12-18T01:03:32;-9.40;1.00
5258;DHT22;2651;51.594;9.928;2022-12-18T01:04:34;-9.40;1.00
5258;DHT22;2651;51.594;9.928;2022-12-18T01:05:40;-9.30;1.00
5258;DHT22;2651;51.594;9.928;2022-12-18T01:06:41;-9.30;1.00
5258;DHT22;2651;51.594;9.928;2022-12-18T01:07:43;-9.20;1.00
5258;DHT22;2651;51.594;9.928;2022-12-18T01:08:45;-9.20;1.00
5258;DHT22;2651;51.594;9.928;2022-12-18T01:09:46;-9.10;1.00
5258;DHT22;2651;51.594;9.928;2022-12-18T01:10:48;-9.10;1.00
5258;DHT22;2651;51.594;9.928;2022-12-18T01:11:50;-9.00;1.00
5258;DHT22;2651;51.594;9.928;2022-12-18T01:12:52;-9.00;1.00
5258;DHT22;2651;51.594;9.928;2022-12-18T01:13:54;-8.90;1.00
5258;DHT22;2651;51.594;9.928;2022-12-18T01:14:56;-8.90;1.00
5258;DHT22;2651;51.594;9.928;2022-12-18T01:15:58;-8.90;1.00
5258;DHT22;2651;51.594;9.928;2022-12-18T01:16:59;-8.80;1.00
5258;DHT22;2651;51.594;9.928;2022-12-18T01:18:03;-8.80;1.00
5258;DHT22;2651;51.594;9.928;2022-12-18T01:19:05;-8.90;99.90
5258;DHT22;2651;51.594;9.928;2022-12-18T01:20:08;-8.90;53.40
5258;DHT22;2651;51.594;9.928;2022-12-18T01:21:13;-8.90;1.00
5258;DHT22;2651;51.594;9.928;2022-12-18T01:22:15;-8.90;66.70
5258;DHT22;2651;51.594;9.928;2022-12-18T01:23:17;-9.00;99.90
5258;DHT22;2651;51.594;9.928;2022-12-18T01:24:19;-9.00;1.00
5258;DHT22;2651;51.594;9.928;2022-12-18T01:25:21;-9.10;1.00
5258;DHT22;2651;51.594;9.928;2022-12-18T01:26:24;-9.10;99.90
5258;DHT22;2651;51.594;9.928;2022-12-18T01:27:26;-9.10;99.90
5258;DHT22;2651;51.594;9.928;2022-12-18T01:28:28;-9.10;38.10
5258;DHT22;2651;51.594;9.928;2022-12-18T01:29:30;-9.10;1.00
5258;DHT22;2651;51.594;9.928;2022-12-18T01:30:32;-9.20;1.00
5258;DHT22;2651;51.594;9.928;2022-12-18T01:31:33;-9.20;99.90
5258;DHT22;2651;51.594;9.928;2022-12-18T01:32:35;-9.20;1.00
5258;DHT22;2651;51.594;9.928;2022-12-18T01:33:37;-9.20;99.90
5258;DHT22;2651;51.594;9.928;2022-12-18T01:34:39;-9.20;1.00
5258;DHT22;2651;51.594;9.928;2022-12-18T01:35:42;-9.20;1.00
5258;DHT22;2651;51.594;9.928;2022-12-18T01:36:44;-9.20;1.00
5258;DHT22;2651;51.594;9.928;2022-12-18T01:37:45;-9.20;1.00
5258;DHT22;2651;51.594;9.928;2022-12-18T01:38:48;-9.20;1.00
5258;DHT22;2651;51.594;9.928;2022-12-18T01:39:50;-9.20;1.00
5258;DHT22;2651;51.594;9.928;2022-12-18T01:40:58;-9.20;1.00
5258;DHT22;2651;51.594;9.928;2022-12-18T01:42:03;-9.20;1.00
5258;DHT22;2651;51.594;9.928;2022-12-18T01:43:04;-9.30;1.00
5258;DHT22;2651;51.594;9.928;2022-12-18T01:45:46;-9.40;1.00
5258;DHT22;2651;51.594;9.928;2022-12-18T01:46:48;-9.40;1.00
5258;DHT22;2651;51.594;9.928;2022-12-18T01:48:05;-9.50;1.00
5258;DHT22;2651;51.594;9.928;2022-12-18T01:49:07;-9.50;1.00
5258;DHT22;2651;51.594;9.928;2022-12-18T01:50:32;-9.50;1.00
5258;DHT22;2651;51.594;9.928;2022-12-18T01:51:35;-9.40;1.00
5258;DHT22;2651;51.594;9.928;2022-12-18T01:52:37;-9.50;1.00
5258;DHT22;2651;51.594;9.928;2022-12-18T01:53:41;-9.50;1.00
5258;DHT22;2651;51.594;9.928;2022-12-18T01:54:44;-9.50;1.00
5258;DHT22;2651;51.594;9.928;2022-12-18T01:55:47;-9.50;99.90
5258;DHT22;2651;51.594;9.928;2022-12-18T01:56:49;-9.40;1.00
5258;DHT22;2651;51.594;9.928;2022-12-18T01:57:56;-9.40;99.90
5258;DHT22;2651;51.594;9.928;2022-12-18T01:59:01;-9.40;99.90
5258;DHT22;2651;51.594;9.928;2022-12-18T02:00:10;-9.40;1.00
5258;DHT22;2651;51.594;9.928;2022-12-18T02:01:13;-9.40;1.00
5258;DHT22;2651;51.594;9.928;2022-12-18T02:02:16;-9.40;1.00
5258;DHT22;2651;51.594;9.928;2022-12-18T02:03:19;-9.40;1.00
5258;DHT22;2651;51.594;9.928;2022-12-18T02:04:25;-9.40;99.90
5258;DHT22;2651;51.594;9.928;2022-12-18T02:06:45;-9.50;1.00
5258;DHT22;2651;51.594;9.928;2022-12-18T02:09:09;-9.50;14.60
5258;DHT22;2651;51.594;9.928;2022-12-18T02:10:23;-9.50;99.90
5258;DHT22;2651;51.594;9.928;2022-12-18T02:13:17;-9.50;99.90
5258;DHT22;2651;51.594;9.928;2022-12-18T02:14:38;-9.50;99.90
5258;DHT22;2651;51.594;9.928;2022-12-18T02:16:02;-9.50;99.90
5258;DHT22;2651;51.594;9.928;2022-12-18T02:18:21;-9.60;99.90
5258;DHT22;2651;51.594;9.928;2022-12-18T02:20:55;-9.60;99.90
5258;DHT22;2651;51.594;9.928;2022-12-18T02:23:40;-9.50;99.90
5258;DHT22;2651;51.594;9.928;2022-12-18T02:26:03;-9.60;1.00
5258;DHT22;2651;51.594;9.928;2022-12-18T02:27:07;-9.50;9.70
5258;DHT22;2651;51.594;9.928;2022-12-18T02:28:13;-9.60;1.00
5258;DHT22;2651;51.594;9.928;2022-12-18T02:31:00;-9.60;99.90
5258;DHT22;2651;51.594;9.928;2022-12-18T02:32:14;-9.70;80.00
5258;DHT22;2651;51.594;9.928;2022-12-18T02:33:19;-9.60;99.90
5258;DHT22;2651;51.594;9.928;2022-12-18T02:34:27;-9.60;37.60
5258;DHT22;2651;51.594;9.928;2022-12-18T02:35:30;-9.60;1.00
5258;DHT22;2651;51.594;9.928;2022-12-18T02:36:33;-9.70;1.00
5258;DHT22;2651;51.594;9.928;2022-12-18T02:37:39;-9.70;1.00
5258;DHT22;2651;51.594;9.928;2022-12-18T02:38:42;-9.70;1.00
5258;DHT22;2651;51.594;9.928;2022-12-18T02:39:48;-9.80;1.00
5258;DHT22;2651;51.594;9.928;2022-12-18T02:40:51;-9.80;1.00
5258;DHT22;2651;51.594;9.928;2022-12-18T02:41:55;-9.80;1.00
5258;DHT22;2651;51.594;9.928;2022-12-18T02:43:08;-9.80;1.00
5258;DHT22;2651;51.594;9.928;2022-12-18T02:44:12;-9.90;1.00
5258;DHT22;2651;51.594;9.928;2022-12-18T02:45:14;-9.90;1.00
5258;DHT22;2651;51.594;9.928;2022-12-18T02:47:42;-9.90;1.00
5258;DHT22;2651;51.594;9.928;2022-12-18T02:48:44;-10.00;1.00
5258;DHT22;2651;51.594;9.928;2022-12-18T02:51:19;-10.00;9.80
5258;DHT22;2651;51.594;9.928;2022-12-18T02:54:06;-10.00;1.00
5258;DHT22;2651;51.594;9.928;2022-12-18T02:56:55;-10.00;1.00
5258;DHT22;2651;51.594;9.928;2022-12-18T02:58:15;-10.10;1.00
5258;DHT22;2651;51.594;9.928;2022-12-18T02:59:24;-10.00;1.00
5258;DHT22;2651;51.594;9.928;2022-12-18T03:00:37;-10.20;1.00
5258;DHT22;2651;51.594;9.928;2022-12-18T03:01:50;-10.30;1.00
5258;DHT22;2651;51.594;9.928;2022-12-18T03:03:14;-10.30;54.30
5258;DHT22;2651;51.594;9.928;2022-12-18T03:05:43;-10.40;1.00
5258;DHT22;2651;51.594;9.928;2022-12-18T03:06:49;-10.30;1.00
5258;DHT22;2651;51.594;9.928;2022-12-18T03:09:08;-10.20;42.10
5258;DHT22;2651;51.594;9.928;2022-12-18T03:10:14;-10.10;1.00
5258;DHT22;2651;51.594;9.928;2022-12-18T03:11:18;-10.10;1.00
5258;DHT22;2651;51.594;9.928;2022-12-18T03:12:51;-10.10;1.00
5258;DHT22;2651;51.594;9.928;2022-12-18T03:13:57;-10.10;1.00
5258;DHT22;2651;51.594;9.928;2022-12-18T03:16:06;-10.10;1.00
5258;DHT22;2651;51.594;9.928;2022-12-18T03:17:14;-10.10;1.00
5258;DHT22;2651;51.594;9.928;2022-12-18T03:18:23;-10.00;1.00
5258;DHT22;2651;51.594;9.928;2022-12-18T03:19:28;-10.10;99.90
5258;DHT22;2651;51.594;9.928;2022-12-18T03:20:32;-10.20;99.90
5258;DHT22;2651;51.594;9.928;2022-12-18T03:21:56;-10.20;99.90
5258;DHT22;2651;51.594;9.928;2022-12-18T03:23:11;-10.30;99.90
5258;DHT22;2651;51.594;9.928;2022-12-18T03:24:15;-10.30;1.00
5258;DHT22;2651;51.594;9.928;2022-12-18T03:25:18;-10.40;99.90
5258;DHT22;2651;51.594;9.928;2022-12-18T03:26:23;-10.40;1.00
5258;DHT22;2651;51.594;9.928;2022-12-18T03:27:27;-10.30;1.00
5258;DHT22;2651;51.594;9.928;2022-12-18T03:28:33;-10.30;99.90
5258;DHT22;2651;51.594;9.928;2022-12-18T03:29:46;-10.20;99.90
5258;DHT22;2651;51.594;9.928;2022-12-18T03:30:56;-10.10;1.00
5258;DHT22;2651;51.594;9.928;2022-12-18T03:32:08;-10.10;1.00
5258;DHT22;2651;51.594;9.928;2022-12-18T03:33:16;-10.10;1.00
5258;DHT22;2651;51.594;9.928;2022-12-18T03:34:29;-10.10;1.00
5258;DHT22;2651;51.594;9.928;2022-12-18T03:35:35;-10.00;1.00
5258;DHT22;2651;51.594;9.928;2022-12-18T03:36:38;-10.00;1.00
5258;DHT22;2651;51.594;9.928;2022-12-18T03:37:40;-10.00;1.00
5258;DHT22;2651;51.594;9.928;2022-12-18T03:38:42;-10.10;99.90
5258;DHT22;2651;51.594;9.928;2022-12-18T03:39:44;-10.10;99.90
5258;DHT22;2651;51.594;9.928;2022-12-18T03:41:03;-10.20;99.90
5258;DHT22;2651;51.594;9.928;2022-12-18T03:42:33;-10.20;99.90
5258;DHT22;2651;51.594;9.928;2022-12-18T03:44:57;-10.30;1.00
5258;DHT22;2651;51.594;9.928;2022-12-18T03:46:08;-10.30;1.00
5258;DHT22;2651;51.594;9.928;2022-12-18T03:47:27;-10.40;1.00
5258;DHT22;2651;51.594;9.928;2022-12-18T04:32:20;-10.40;1.00
5258;DHT22;2651;51.594;9.928;2022-12-18T04:33:22;-10.50;1.00
5258;DHT22;2651;51.594;9.928;2022-12-18T04:34:23;-10.50;1.00
5258;DHT22;2651;51.594;9.928;2022-12-18T04:35:25;-10.50;1.00
5258;DHT22;2651;51.594;9.928;2022-12-18T04:36:27;-10.50;1.00
5258;DHT22;2651;51.594;9.928;2022-12-18T04:37:28;-10.50;1.00
5258;DHT22;2651;51.594;9.928;2022-12-18T04:38:30;-10.50;1.00
5258;DHT22;2651;51.594;9.928;2022-12-18T04:39:32;-10.50;1.00
5258;DHT22;2651;51.594;9.928;2022-12-18T04:40:34;-10.50;1.00
5258;DHT22;2651;51.594;9.928;2022-12-18T04:41:35;-10.50;1.00
5258;DHT22;2651;51.594;9.928;2022-12-18T04:42:39;-10.50;1.00
5258;DHT22;2651;51.594;9.928;2022-12-18T04:43:41;-10.50;1.00
5258;DHT22;2651;51.594;9.928;2022-12-18T04:44:43;-10.60;1.00
5258;DHT22;2651;51.594;9.928;2022-12-18T04:45:44;-10.70;1.00
5258;DHT22;2651;51.594;9.928;2022-12-18T04:46:46;-10.60;99.90
5258;DHT22;2651;51.594;9.928;2022-12-18T04:47:48;-10.60;99.90
5258;DHT22;2651;51.594;9.928;2022-12-18T04:48:49;-10.60;99.90
5258;DHT22;2651;51.594;9.928;2022-12-18T04:49:51;-10.50;99.90
5258;DHT22;2651;51.594;9.928;2022-12-18T04:50:53;-10.50;13.80
5258;DHT22;2651;51.594;9.928;2022-12-18T04:51:54;-10.50;1.00
5258;DHT22;2651;51.594;9.928;2022-12-18T04:52:56;-10.60;1.00
5258;DHT22;2651;51.594;9.928;2022-12-18T04:53:58;-10.70;1.00
5258;DHT22;2651;51.594;9.928;2022-12-18T04:55:00;-10.80;1.00
5258;DHT22;2651;51.594;9.928;2022-12-18T04:56:10;-10.90;1.00
5258;DHT22;2651;51.594;9.928;2022-12-18T04:57:12;-10.80;1.00
5258;DHT22;2651;51.594;9.928;2022-12-18T04:58:13;-10.90;1.00
5258;DHT22;2651;51.594;9.928;2022-12-18T04:59:15;-10.90;99.90
5258;DHT22;2651;51.594;9.928;2022-12-18T05:00:17;-10.80;99.90
5258;DHT22;2651;51.594;9.928;2022-12-18T05:01:19;-10.80;99.90
5258;DHT22;2651;51.594;9.928;2022-12-18T05:02:21;-10.70;99.90
5258;DHT22;2651;51.594;9.928;2022-12-18T05:03:22;-10.70;99.90
5258;DHT22;2651;51.594;9.928;2022-12-18T05:04:24;-10.70;75.50
5258;DHT22;2651;51.594;9.928;2022-12-18T05:05:26;-10.70;1.00
5258;DHT22;2651;51.594;9.928;2022-12-18T05:06:27;-10.80;1.00
5258;DHT22;2651;51.594;9.928;2022-12-18T05:07:29;-10.80;1.00
5258;DHT22;2651;51.594;9.928;2022-12-18T05:08:31;-10.90;1.00
5258;DHT22;2651;51.594;9.928;2022-12-18T05:09:33;-11.00;1.00
5258;DHT22;2651;51.594;9.928;2022-12-18T05:10:35;-11.00;1.00
5258;DHT22;2651;51.594;9.928;2022-12-18T05:11:39;-11.10;99.90
5258;DHT22;2651;51.594;9.928;2022-12-18T05:12:40;-11.10;1.00
5258;DHT22;2651;51.594;9.928;2022-12-18T05:14:01;-11.10;1.00
5258;DHT22;2651;51.594;9.928;2022-12-18T05:15:03;-11.00;53.30
5258;DHT22;2651;51.594;9.928;2022-12-18T05:16:05;-11.00;99.90
5258;DHT22;2651;51.594;9.928;2022-12-18T05:17:07;-10.90;99.90
5258;DHT22;2651;51.594;9.928;2022-12-18T05:18:09;-10.90;99.90
5258;DHT22;2651;51.594;9.928;2022-12-18T05:19:10;-10.90;99.90
5258;DHT22;2651;51.594;9.928;2022-12-18T05:20:13;-10.80;99.90
5258;DHT22;2651;51.594;9.928;2022-12-18T05:21:15;-10.80;99.90
5258;DHT22;2651;51.594;9.928;2022-12-18T05:22:16;-10.80;99.90
5258;DHT22;2651;51.594;9.928;2022-12-18T05:23:19;-10.70;99.90
5258;DHT22;2651;51.594;9.928;2022-12-18T05:24:20;-10.70;1.00
5258;DHT22;2651;51.594;9.928;2022-12-18T05:25:23;-10.80;1.00
5258;DHT22;2651;51.594;9.928;2022-12-18T05:26:25;-10.80;1.00
5258;DHT22;2651;51.594;9.928;2022-12-18T05:27:26;-10.80;1.00
5258;DHT22;2651;51.594;9.928;2022-12-18T05:28:29;-10.70;1.00
5258;DHT22;2651;51.594;9.928;2022-12-18T05:29:32;-10.80;1.00
5258;DHT22;2651;51.594;9.928;2022-12-18T05:30:33;-10.80;1.00
5258;DHT22;2651;51.594;9.928;2022-12-18T05:31:35;-10.70;1.00
5258;DHT22;2651;51.594;9.928;2022-12-18T05:32:40;-10.60;1.00
5258;DHT22;2651;51.594;9.928;2022-12-18T05:33:42;-10.60;1.00
5258;DHT22;2651;51.594;9.928;2022-12-18T05:34:44;-10.50;1.00
5258;DHT22;2651;51.594;9.928;2022-12-18T05:36:03;-10.50;1.00
5258;DHT22;2651;51.594;9.928;2022-12-18T05:37:05;-10.40;99.90
5258;DHT22;2651;51.594;9.928;2022-12-18T05:38:06;-10.40;99.90
5258;DHT22;2651;51.594;9.928;2022-12-18T05:39:09;-10.40;1.00
5258;DHT22;2651;51.594;9.928;2022-12-18T05:40:11;-10.40;1.00
5258;DHT22;2651;51.594;9.928;2022-12-18T05:41:13;-10.50;1.00
5258;DHT22;2651;51.594;9.928;2022-12-18T05:42:14;-10.50;1.00
5258;DHT22;2651;51.594;9.928;2022-12-18T05:43:17;-10.60;1.00
5258;DHT22;2651;51.594;9.928;2022-12-18T05:44:21;-10.60;1.00
5258;DHT22;2651;51.594;9.928;2022-12-18T05:45:23;-10.50;1.00
5258;DHT22;2651;51.594;9.928;2022-12-18T05:46:25;-10.60;1.00
5258;DHT22;2651;51.594;9.928;2022-12-18T05:47:27;-10.60;1.00
5258;DHT22;2651;51.594;9.928;2022-12-18T05:48:30;-10.60;1.00
5258;DHT22;2651;51.594;9.928;2022-12-18T05:49:31;-10.60;1.00
5258;DHT22;2651;51.594;9.928;2022-12-18T05:50:37;-10.60;1.00
5258;DHT22;2651;51.594;9.928;2022-12-18T05:51:39;-10.60;99.90
5258;DHT22;2651;51.594;9.928;2022-12-18T05:52:41;-10.60;99.90
5258;DHT22;2651;51.594;9.928;2022-12-18T05:53:43;-10.70;99.90
5258;DHT22;2651;51.594;9.928;2022-12-18T05:54:45;-10.70;1.80
5258;DHT22;2651;51.594;9.928;2022-12-18T05:55:47;-10.70;97.70
5258;DHT22;2651;51.594;9.928;2022-12-18T05:56:49;-10.70;99.90
5258;DHT22;2651;51.594;9.928;2022-12-18T05:57:51;-10.80;23.40
5258;DHT22;2651;51.594;9.928;2022-12-18T05:58:53;-10.90;49.60
5258;DHT22;2651;51.594;9.928;2022-12-18T05:59:55;-11.00;99.90
5258;DHT22;2651;51.594;9.928;2022-12-18T06:00:57;-11.00;99.90
5258;DHT22;2651;51.594;9.928;2022-12-18T06:01:58;-11.00;1.00
5258;DHT22;2651;51.594;9.928;2022-12-18T06:03:01;-11.00;1.00
5258;DHT22;2651;51.594;9.928;2022-12-18T06:04:02;-10.90;1.00
5258;DHT22;2651;51.594;9.928;2022-12-18T06:05:06;-10.90;1.00
5258;DHT22;2651;51.594;9.928;2022-12-18T06:06:25;-10.90;1.00
5258;DHT22;2651;51.594;9.928;2022-12-18T06:07:27;-10.90;1.00
5258;DHT22;2651;51.594;9.928;2022-12-18T06:08:28;-11.00;99.90
5258;DHT22;2651;51.594;9.928;2022-12-18T06:09:30;-10.90;99.90
5258;DHT22;2651;51.594;9.928;2022-12-18T06:10:31;-10.90;99.90
5258;DHT22;2651;51.594;9.928;2022-12-18T06:11:35;-11.00;99.90
5258;DHT22;2651;51.594;9.928;2022-12-18T06:12:37;-11.10;36.20
5258;DHT22;2651;51.594;9.928;2022-12-18T06:13:39;-11.20;99.90
5258;DHT22;2651;51.594;9.928;2022-12-18T06:14:41;-11.30;99.90
5258;DHT22;2651;51.594;9.928;2022-12-18T06:15:43;-11.30;99.90
5258;DHT22;2651;51.594;9.928;2022-12-18T06:16:44;-11.40;1.00
5258;DHT22;2651;51.594;9.928;2022-12-18T06:17:46;-11.40;1.00
5258;DHT22;2651;51.594;9.928;2022-12-18T06:18:48;-11.40;1.00
5258;DHT22;2651;51.594;9.928;2022-12-18T06:19:49;-11.40;1.00
5258;DHT22;2651;51.594;9.928;2022-12-18T06:20:55;-11.30;99.90
5258;DHT22;2651;51.594;9.928;2022-12-18T06:21:57;-11.20;99.90
5258;DHT22;2651;51.594;9.928;2022-12-18T06:23:00;-11.10;99.90
5258;DHT22;2651;51.594;9.928;2022-12-18T06:24:02;-11.20;1.00
5258;DHT22;2651;51.594;9.928;2022-12-18T06:25:04;-11.20;1.00
5258;DHT22;2651;51.594;9.928;2022-12-18T06:26:09;-11.20;1.00
5258;DHT22;2651;51.594;9.928;2022-12-18T06:27:11;-11.20;1.00
5258;DHT22;2651;51.594;9.928;2022-12-18T06:28:12;-11.10;5.00
5258;DHT22;2651;51.594;9.928;2022-12-18T06:29:14;-11.10;11.20
5258;DHT22;2651;51.594;9.928;2022-12-18T06:30:16;-11.10;1.00
5258;DHT22;2651;51.594;9.928;2022-12-18T06:31:17;-11.00;1.00
5258;DHT22;2651;51.594;9.928;2022-12-18T06:32:19;-11.00;1.00
5258;DHT22;2651;51.594;9.928;2022-12-18T06:33:21;-11.00;1.00
5258;DHT22;2651;51.594;9.928;2022-12-18T06:34:22;-11.10;1.00
5258;DHT22;2651;51.594;9.928;2022-12-18T06:35:24;-11.10;1.00
5258;DHT22;2651;51.594;9.928;2022-12-18T06:36:25;-11.00;1.00
5258;DHT22;2651;51.594;9.928;2022-12-18T06:37:27;-11.00;1.00
5258;DHT22;2651;51.594;9.928;2022-12-18T06:38:31;-10.90;52.60
5258;DHT22;2651;51.594;9.928;2022-12-18T06:39:33;-10.90;1.00
5258;DHT22;2651;51.594;9.928;2022-12-18T06:40:37;-10.90;1.00
5258;DHT22;2651;51.594;9.928;2022-12-18T06:41:39;-10.90;1.00
5258;DHT22;2651;51.594;9.928;2022-12-18T06:42:40;-10.90;1.00
5258;DHT22;2651;51.594;9.928;2022-12-18T06:43:43;-10.90;1.00
5258;DHT22;2651;51.594;9.928;2022-12-18T06:44:45;-10.80;1.00
5258;DHT22;2651;51.594;9.928;2022-12-18T06:45:46;-10.80;1.00
5258;DHT22;2651;51.594;9.928;2022-12-18T06:46:54;-10.80;99.90
5258;DHT22;2651;51.594;9.928;2022-12-18T06:47:55;-10.80;99.90
5258;DHT22;2651;51.594;9.928;2022-12-18T06:48:57;-10.80;99.90
5258;DHT22;2651;51.594;9.928;2022-12-18T06:49:59;-10.90;99.90
5258;DHT22;2651;51.594;9.928;2022-12-18T06:51:01;-10.90;99.90
5258;DHT22;2651;51.594;9.928;2022-12-18T06:52:03;-10.90;99.90
5258;DHT22;2651;51.594;9.928;2022-12-18T06:53:04;-10.90;99.90
5258;DHT22;2651;51.594;9.928;2022-12-18T06:54:08;-11.00;99.90
5258;DHT22;2651;51.594;9.928;2022-12-18T06:55:10;-11.00;99.90
5258;DHT22;2651;51.594;9.928;2022-12-18T06:56:12;-11.00;99.90
5258;DHT22;2651;51.594;9.928;2022-12-18T06:57:14;-11.00;99.90
5258;DHT22;2651;51.594;9.928;2022-12-18T06:58:15;-11.00;99.90
5258;DHT22;2651;51.594;9.928;2022-12-18T06:59:17;-11.00;99.90
5258;DHT22;2651;51.594;9.928;2022-12-18T07:00:19;-11.00;99.90
5258;DHT22;2651;51.594;9.928;2022-12-18T07:01:21;-11.10;99.90
5258;DHT22;2651;51.594;9.928;2022-12-18T07:02:23;-11.10;99.90
5258;DHT22;2651;51.594;9.928;2022-12-18T07:03:25;-11.00;99.90
5258;DHT22;2651;51.594;9.928;2022-12-18T07:04:29;-11.00;99.90
5258;DHT22;2651;51.594;9.928;2022-12-18T07:05:31;-11.00;99.90
5258;DHT22;2651;51.594;9.928;2022-12-18T07:06:33;-11.00;99.90
5258;DHT22;2651;51.594;9.928;2022-12-18T07:07:35;-11.10;82.30
5258;DHT22;2651;51.594;9.928;2022-12-18T07:08:36;-11.10;1.00
5258;DHT22;2651;51.594;9.928;2022-12-18T07:09:38;-11.10;87.30
5258;DHT22;2651;51.594;9.928;2022-12-18T07:10:43;-11.10;99.90
5258;DHT22;2651;51.594;9.928;2022-12-18T07:11:50;-11.00;99.90
5258;DHT22;2651;51.594;9.928;2022-12-18T07:12:51;-11.10;99.90
5258;DHT22;2651;51.594;9.928;2022-12-18T07:13:53;-11.00;99.90
5258;DHT22;2651;51.594;9.928;2022-12-18T07:14:55;-11.10;49.60
5258;DHT22;2651;51.594;9.928;2022-12-18T07:16:08;-11.20;30.20
5258;DHT22;2651;51.594;9.928;2022-12-18T07:17:19;-11.20;99.90
5258;DHT22;2651;51.594;9.928;2022-12-18T07:18:20;-11.10;99.90
5258;DHT22;2651;51.594;9.928;2022-12-18T07:19:22;-11.10;99.90
5258;DHT22;2651;51.594;9.928;2022-12-18T07:20:25;-11.10;99.90
5258;DHT22;2651;51.594;9.928;2022-12-18T07:21:26;-11.00;99.90
5258;DHT22;2651;51.594;9.928;2022-12-18T07:22:28;-11.00;84.80
5258;DHT22;2651;51.594;9.928;2022-12-18T07:23:31;-11.00;1.00
5258;DHT22;2651;51.594;9.928;2022-12-18T07:24:33;-11.00;1.00
5258;DHT22;2651;51.594;9.928;2022-12-18T07:25:37;-11.00;1.00
5258;DHT22;2651;51.594;9.928;2022-12-18T07:26:38;-11.00;1.00
5258;DHT22;2651;51.594;9.928;2022-12-18T07:27:40;-11.00;1.00
5258;DHT22;2651;51.594;9.928;2022-12-18T07:28:42;-11.00;1.00
5258;DHT22;2651;51.594;9.928;2022-12-18T07:29:43;-11.10;1.00
5258;DHT22;2651;51.594;9.928;2022-12-18T07:30:45;-11.10;1.00
5258;DHT22;2651;51.594;9.928;2022-12-18T07:31:48;-11.10;1.00
5258;DHT22;2651;51.594;9.928;2022-12-18T07:32:50;-11.10;1.00
5258;DHT22;2651;51.594;9.928;2022-12-18T07:33:52;-11.20;1.00
5258;DHT22;2651;51.594;9.928;2022-12-18T07:34:54;-11.20;1.00
5258;DHT22;2651;51.594;9.928;2022-12-18T07:35:55;-11.30;1.00
5258;DHT22;2651;51.594;9.928;2022-12-18T07:36:57;-11.20;99.90
5258;DHT22;2651;51.594;9.928;2022-12-18T07:38:00;-11.10;99.90
5258;DHT22;2651;51.594;9.928;2022-12-18T07:39:02;-11.10;99.90
5258;DHT22;2651;51.594;9.928;2022-12-18T07:40:04;-11.10;99.90
5258;DHT22;2651;51.594;9.928;2022-12-18T07:41:08;-11.00;99.90
5258;DHT22;2651;51.594;9.928;2022-12-18T07:42:10;-11.00;99.90
5258;DHT22;2651;51.594;9.928;2022-12-18T07:43:31;-11.00;64.50
5258;DHT22;2651;51.594;9.928;2022-12-18T07:44:32;-10.90;16.50
5258;DHT22;2651;51.594;9.928;2022-12-18T07:45:34;-11.00;1.00
5258;DHT22;2651;51.594;9.928;2022-12-18T07:46:36;-11.00;1.00
5258;DHT22;2651;51.594;9.928;2022-12-18T07:47:37;-11.10;1.00
5258;DHT22;2651;51.594;9.928;2022-12-18T07:48:42;-11.10;1.00
5258;DHT22;2651;51.594;9.928;2022-12-18T07:49:50;-11.10;1.00
5258;DHT22;2651;51.594;9.928;2022-12-18T07:50:51;-11.20;98.50
5258;DHT22;2651;51.594;9.928;2022-12-18T07:51:55;-11.10;99.90
5258;DHT22;2651;51.594;9.928;2022-12-18T07:52:57;-11.00;1.00
5258;DHT22;2651;51.594;9.928;2022-12-18T07:53:59;-11.00;99.90
5258;DHT22;2651;51.594;9.928;2022-12-18T07:55:00;-10.90;1.00
5258;DHT22;2651;51.594;9.928;2022-12-18T07:56:08;-11.00;99.90
5258;DHT22;2651;51.594;9.928;2022-12-18T07:57:28;-11.00;99.90
5258;DHT22;2651;51.594;9.928;2022-12-18T07:58:50;-11.00;1.00
5258;DHT22;2651;51.594;9.928;2022-12-18T07:59:52;-11.00;1.00
5258;DHT22;2651;51.594;9.928;2022-12-18T08:00:53;-10.90;1.00
5258;DHT22;2651;51.594;9.928;2022-12-18T08:01:55;-10.80;1.00
5258;DHT22;2651;51.594;9.928;2022-12-18T08:02:57;-10.80;1.00
5258;DHT22;2651;51.594;9.928;2022-12-18T08:03:59;-10.80;99.90
5258;DHT22;2651;51.594;9.928;2022-12-18T08:05:00;-10.80;99.90
5258;DHT22;2651;51.594;9.928;2022-12-18T08:06:06;-10.70;99.90
5258;DHT22;2651;51.594;9.928;2022-12-18T08:07:08;-10.70;99.90